Al Cenac — WDD5445 — position and weather

sailwx.info

Track history (hours):
 
Tides and Currents Weather Stations Pressure Air Temp Water Temp Dewpoint Dewpoint Depression Visibility Wind Speed Wind Dir Waves Ship Positions

Al Cenac

Owner: Caillou Island Towing Co, Inc., Houma, LA. More information available from US FCC via Universal Licensing System and Coast Guard Vessel Documentation Center.

Last reported at 2016-Dec-10 06:14 UTC. Time now 2016-Dec-10 09:02 UTC.
Position N 40°46' W 073°57'.

; draft 10 m.

Type: Tug. MMSI: 367158530.

Date/timePositionNaut miles runAvg speedWind from/ knotsBaromVisibWave heightAir tempDewpointWater temp
2016-Dec-10 06:14N 40°46' W 073°57'4 6.5
2016-Dec-10 05:33N 40°42' W 074°00'4 4.2
2016-Dec-10 04:32N 40°39' W 074°05'5 4.6
2016-Dec-10 03:24N 40°38' W 074°11'2 0.4
2016-Dec-09 22:27N 40°36' W 074°12'3 3.0
2016-Dec-09 21:33N 40°38' W 074°10'0 0.0
2016-Dec-09 20:33N 40°38' W 074°10'0 0.0
2016-Dec-09 19:32N 40°38' W 074°10'3 2.6
2016-Dec-09 18:33N 40°39' W 074°07'0 0.0
2016-Dec-09 17:33N 40°39' W 074°07'4 3.5
2016-Dec-09 16:33N 40°39' W 074°11'7 4.8
2016-Dec-09 15:11N 40°33' W 074°15'1 0.8
2016-Dec-09 14:22N 40°33' W 074°15'5 6.7
2016-Dec-09 13:33N 40°38' W 074°12'6 5.8
2016-Dec-09 12:33N 40°39' W 074°04'4 4.4
2016-Dec-09 11:33N 40°39' W 074°10'3 2.9
2016-Dec-09 10:33N 40°36' W 074°12'1 0.7
2016-Dec-09 09:23N 40°35' W 074°12'0 0.0
2016-Dec-09 06:33N 40°35' W 074°12'4 3.6
2016-Dec-09 05:33N 40°39' W 074°10'0 0.0
2016-Dec-09 04:33N 40°39' W 074°10'0 0.0
2016-Dec-09 03:33N 40°39' W 074°10'0 0.0
2016-Dec-09 02:33N 40°39' W 074°10'0 0.0
2016-Dec-09 01:33N 40°39' W 074°10'3 2.9
2016-Dec-09 00:33N 40°36' W 074°12'6 6.0
2016-Dec-08 23:33N 40°39' W 074°05'8 7.5
2016-Dec-08 22:33N 40°44' W 073°58'5 2.2
2016-Dec-08 20:21N 40°48' W 073°54'0 0.0
2016-Dec-08 18:30N 40°48' W 073°54'0 0.0
2016-Dec-08 17:33N 40°48' W 073°54'0 0.0
2016-Dec-08 16:31N 40°48' W 073°54'0 0.0
2016-Dec-08 15:32N 40°48' W 073°54'0 0.0
2016-Dec-08 14:33N 40°48' W 073°54'0 0.0
2016-Dec-08 13:32N 40°48' W 073°54'0 0.0
2016-Dec-08 12:30N 40°48' W 073°54'0 0.0
2016-Dec-08 11:33N 40°48' W 073°54'0 0.0
2016-Dec-08 09:27N 40°48' W 073°54'4 4.1
2016-Dec-08 08:33N 40°45' W 073°57'4 4.0
2016-Dec-08 07:33N 40°42' W 074°00'6 5.7
2016-Dec-08 06:33N 40°39' W 074°06'3 3.3
2016-Dec-08 05:33N 40°39' W 074°11'7 3.3
2016-Dec-08 03:26N 40°33' W 074°15'7 8.0
2016-Dec-08 02:33N 40°39' W 074°11'1 0.6
2016-Dec-08 01:33N 40°39' W 074°10'0 0.0
2016-Dec-08 00:33N 40°39' W 074°10'0 0.5
2016-Dec-07 23:33N 40°38' W 074°09'9 8.7
2016-Dec-07 22:33N 40°44' W 074°01'1010.1
2016-Dec-07 21:33N 40°54' W 073°55'2 0.7
2016-Dec-07 18:29N 40°56' W 073°54'9 9.1
2016-Dec-07 17:33N 40°48' W 073°59'9 9.0
2016-Dec-07 16:33N 40°40' W 074°04'7 7.3
2016-Dec-07 15:33N 40°36' W 074°12'0 0.1
2016-Dec-07 13:29N 40°36' W 074°12'7 7.3
2016-Dec-07 12:33N 40°39' W 074°04'3 3.5
2016-Dec-07 11:33N 40°38' W 074°09'1 0.9
2016-Dec-07 10:33N 40°39' W 074°10'6 2.8
2016-Dec-07 08:19N 40°33' W 074°14'5 6.0
2016-Dec-07 07:33N 40°38' W 074°12'6 6.3
2016-Dec-07 06:33N 40°39' W 074°04'4 3.9
2016-Dec-07 05:33N 40°38' W 074°09'0 0.4
2016-Dec-07 04:33N 40°38' W 074°10'0 0.0
2016-Dec-07 03:33N 40°38' W 074°10'0 0.0
2016-Dec-07 02:32N 40°38' W 074°10'0 0.0
2016-Dec-07 01:33N 40°38' W 074°10'0 0.0
2016-Dec-07 00:33N 40°38' W 074°10'0 0.0
2016-Dec-06 23:33N 40°38' W 074°10'0 0.0
2016-Dec-06 22:33N 40°38' W 074°10'4 4.4
2016-Dec-06 21:33N 40°40' W 074°04'2 1.5
2016-Dec-06 20:33N 40°39' W 074°06'0 0.2
2016-Dec-06 18:33N 40°39' W 074°06'0 0.0
2016-Dec-06 17:33N 40°39' W 074°06'0 0.0
2016-Dec-06 16:33N 40°39' W 074°06'0 0.0
2016-Dec-06 15:33N 40°39' W 074°06'1 1.0
2016-Dec-06 14:33N 40°39' W 074°07'5 0.5
2016-Dec-06 05:29N 40°36' W 074°12'3 3.1
2016-Dec-06 04:33N 40°39' W 074°10'0 0.0
2016-Dec-06 03:33N 40°39' W 074°10'0 0.0
2016-Dec-06 02:33N 40°39' W 074°10'0 0.0
2016-Dec-06 01:29N 40°39' W 074°10'0 0.0
2016-Dec-06 00:11N 40°39' W 074°10'0 0.0
2016-Dec-05 23:29N 40°39' W 074°10'0 0.0
2016-Dec-05 22:33N 40°39' W 074°10'0 0.0
2016-Dec-05 21:32N 40°39' W 074°10'0 0.0
2016-Dec-05 20:33N 40°39' W 074°10'0 0.0
2016-Dec-05 19:33N 40°39' W 074°10'0 0.0
2016-Dec-05 18:33N 40°39' W 074°10'0 0.0
2016-Dec-05 17:33N 40°39' W 074°10'0 0.0
2016-Dec-05 16:33N 40°39' W 074°10'0 0.0
2016-Dec-05 15:33N 40°39' W 074°10'0 0.0
2016-Dec-05 14:33N 40°39' W 074°10'0 0.0
2016-Dec-05 13:33N 40°39' W 074°10'0 0.0
2016-Dec-05 12:32N 40°39' W 074°10'3 2.9
2016-Dec-05 11:33N 40°39' W 074°06'0 0.0
2016-Dec-05 10:33N 40°39' W 074°06'3 2.9
2016-Dec-05 09:33N 40°39' W 074°10'0 0.0
2016-Dec-05 08:33N 40°39' W 074°10'0 0.0
2016-Dec-05 07:33N 40°39' W 074°10'0 0.0
2016-Dec-05 06:33N 40°39' W 074°10'0 0.0
2016-Dec-05 05:33N 40°39' W 074°10'0 0.0
2016-Dec-05 04:33N 40°39' W 074°10'0 0.0
2016-Dec-05 03:33N 40°39' W 074°10'0 0.0
2016-Dec-05 02:33N 40°39' W 074°10'0 0.0
2016-Dec-05 01:33N 40°39' W 074°10'0 0.0
2016-Dec-05 00:33N 40°39' W 074°10'0 0.0
2016-Dec-04 23:33N 40°39' W 074°10'0 0.0
2016-Dec-04 22:33N 40°39' W 074°10'0 0.0
2016-Dec-04 21:33N 40°39' W 074°10'0 0.5
2016-Dec-04 20:32N 40°39' W 074°10'6 4.7
2016-Dec-04 19:19N 40°33' W 074°13'6 7.5
2016-Dec-04 18:33N 40°39' W 074°10'0 0.0
2016-Dec-04 17:33N 40°39' W 074°10'0 0.0
2016-Dec-04 16:33N 40°39' W 074°10'2 2.5
2016-Dec-04 15:33N 40°39' W 074°07'2 2.5
2016-Dec-04 14:33N 40°39' W 074°10'0 0.0
2016-Dec-04 13:33N 40°38' W 074°10'0 0.0
2016-Dec-04 12:33N 40°38' W 074°10'0 0.0
2016-Dec-04 11:33N 40°38' W 074°10'0 0.0
2016-Dec-04 10:33N 40°38' W 074°10'4 4.1
2016-Dec-04 09:32N 40°35' W 074°13'3 3.0
2016-Dec-04 08:33N 40°33' W 074°15'1 0.9
2016-Dec-04 07:24N 40°33' W 074°14'2 0.9
2016-Dec-04 05:11N 40°35' W 074°13'2 0.7
2016-Dec-04 02:32N 40°33' W 074°14'6 6.1
2016-Dec-04 01:33N 40°39' W 074°10'0 0.0
2016-Dec-04 00:33N 40°39' W 074°10'0 0.1
2016-Dec-03 23:33N 40°38' W 074°10'0 0.0
2016-Dec-03 22:33N 40°38' W 074°10'0 0.0
2016-Dec-03 21:33N 40°38' W 074°10'3 2.6
2016-Dec-03 20:33N 40°39' W 074°07'3 2.7
2016-Dec-03 19:33N 40°37' W 074°03'0 0.2
2016-Dec-03 18:33N 40°37' W 074°03'0 0.3
2016-Dec-03 17:33N 40°37' W 074°03'2 1.8
2016-Dec-03 16:33N 40°39' W 074°04'1 1.3
2016-Dec-03 15:33N 40°40' W 074°03'9 8.6
2016-Dec-03 14:33N 40°48' W 073°59'8 8.0
2016-Dec-03 13:32N 40°56' W 073°54'0 0.4
2016-Dec-03 12:16N 40°56' W 073°55'0 0.0
2016-Dec-03 10:18N 40°56' W 073°55'0 0.0
2016-Dec-03 08:31N 40°56' W 073°55'0 0.0
2016-Dec-03 07:32N 40°56' W 073°55'0 0.1
2016-Dec-03 06:33N 40°56' W 073°55'1 0.7
2016-Dec-03 05:30N 40°55' W 073°55'9 9.8
2016-Dec-03 04:33N 40°47' W 073°60'9 9.1
2016-Dec-03 03:33N 40°39' W 074°06'2 1.9
2016-Dec-03 02:33N 40°38' W 074°04'1 1.2
2016-Dec-03 01:33N 40°39' W 074°04'0 0.0
2016-Dec-03 00:33N 40°39' W 074°04'9 9.1
2016-Dec-02 23:33N 40°48' W 073°59'7 6.6
2016-Dec-02 22:33N 40°54' W 073°56'2 2.2
2016-Dec-02 21:33N 40°56' W 073°55'0 0.0
2016-Dec-02 20:33N 40°56' W 073°55'0 0.0
2016-Dec-02 19:19N 40°56' W 073°55'0 0.0
2016-Dec-02 11:12N 40°56' W 073°55'0 0.0
2016-Dec-02 10:32N 40°56' W 073°55'0 0.0
2016-Dec-02 09:29N 40°56' W 073°55'0 0.0
2016-Dec-02 07:28N 40°56' W 073°55'0 0.1
2016-Dec-02 05:29N 40°56' W 073°55'0 0.0
2016-Dec-02 02:28N 40°56' W 073°55'0 0.0
2016-Dec-02 01:33N 40°56' W 073°55'0 0.2
2016-Dec-01 23:33N 40°56' W 073°54'0 0.0
2016-Dec-01 22:33N 40°56' W 073°54'1 1.1
2016-Dec-01 21:33N 40°55' W 073°55'6 5.9
2016-Dec-01 20:33N 40°49' W 073°58'6 6.0
2016-Dec-01 19:33N 40°44' W 074°01'7 7.3
2016-Dec-01 18:32N 40°39' W 074°08'1 1.3
2016-Dec-01 17:33N 40°39' W 074°10'0 0.0
2016-Dec-01 16:33N 40°39' W 074°10'0 0.0
2016-Dec-01 15:33N 40°39' W 074°10'0 0.0
2016-Dec-01 14:33N 40°39' W 074°10'0 0.0
2016-Dec-01 13:33N 40°39' W 074°10'7 7.2
2016-Dec-01 12:32N 40°32' W 074°15'4 3.7
2016-Dec-01 11:33N 40°35' W 074°12'4 3.7
2016-Dec-01 10:33N 40°39' W 074°10'0 0.0
2016-Dec-01 09:33N 40°39' W 074°10'0 0.0
2016-Dec-01 08:33N 40°39' W 074°10'0 0.0
2016-Dec-01 07:33N 40°39' W 074°10'0 0.0
2016-Dec-01 06:33N 40°39' W 074°10'0 0.0
2016-Dec-01 05:33N 40°39' W 074°10'0 0.0
2016-Dec-01 04:33N 40°39' W 074°10'0 0.0
2016-Dec-01 03:33N 40°39' W 074°10'0 0.0
2016-Dec-01 02:33N 40°39' W 074°10'0 0.0
2016-Dec-01 01:33N 40°39' W 074°10'4 4.2
2016-Dec-01 00:33N 40°39' W 074°04'4 3.9
2016-Nov-30 23:32N 40°38' W 074°10'0 0.3
2016-Nov-30 22:33N 40°38' W 074°10'0 0.0
2016-Nov-30 21:33N 40°38' W 074°10'0 0.2
2016-Nov-30 20:33N 40°38' W 074°10'3 3.1
2016-Nov-30 19:33N 40°39' W 074°06'3 3.1
2016-Nov-30 18:33N 40°41' W 074°02'9 9.1
2016-Nov-30 17:33N 40°48' W 073°55'  
Track history (hours):
 
Tides and Currents Weather Stations Pressure Air Temp Water Temp Dewpoint Dewpoint Depression Visibility Wind Speed Wind Dir Waves Ship Positions

Al Cenac

Owner: Caillou Island Towing Co, Inc., Houma, LA. More information available from US FCC via Universal Licensing System and Coast Guard Vessel Documentation Center.

Last reported at 2016-Dec-10 06:14 UTC. Time now 2016-Dec-10 09:02 UTC.
Position N 40°46' W 073°57'.

; draft 10 m.

Type: Tug. MMSI: 367158530.

Date/timePositionNaut miles runAvg speedWind from/ knotsBaromVisibWave heightAir tempDewpointWater temp
2016-Dec-10 06:14N 40°46' W 073°57'4 6.5
2016-Dec-10 05:33N 40°42' W 074°00'4 4.2
2016-Dec-10 04:32N 40°39' W 074°05'5 4.6
2016-Dec-10 03:24N 40°38' W 074°11'2 0.4
2016-Dec-09 22:27N 40°36' W 074°12'3 3.0
2016-Dec-09 21:33N 40°38' W 074°10'0 0.0
2016-Dec-09 20:33N 40°38' W 074°10'0 0.0
2016-Dec-09 19:32N 40°38' W 074°10'3 2.6
2016-Dec-09 18:33N 40°39' W 074°07'0 0.0
2016-Dec-09 17:33N 40°39' W 074°07'4 3.5
2016-Dec-09 16:33N 40°39' W 074°11'7 4.8
2016-Dec-09 15:11N 40°33' W 074°15'1 0.8
2016-Dec-09 14:22N 40°33' W 074°15'5 6.7
2016-Dec-09 13:33N 40°38' W 074°12'6 5.8
2016-Dec-09 12:33N 40°39' W 074°04'4 4.4
2016-Dec-09 11:33N 40°39' W 074°10'3 2.9
2016-Dec-09 10:33N 40°36' W 074°12'1 0.7
2016-Dec-09 09:23N 40°35' W 074°12'0 0.0
2016-Dec-09 06:33N 40°35' W 074°12'4 3.6
2016-Dec-09 05:33N 40°39' W 074°10'0 0.0
2016-Dec-09 04:33N 40°39' W 074°10'0 0.0
2016-Dec-09 03:33N 40°39' W 074°10'0 0.0
2016-Dec-09 02:33N 40°39' W 074°10'0 0.0
2016-Dec-09 01:33N 40°39' W 074°10'3 2.9
2016-Dec-09 00:33N 40°36' W 074°12'6 6.0
2016-Dec-08 23:33N 40°39' W 074°05'8 7.5
2016-Dec-08 22:33N 40°44' W 073°58'5 2.2
2016-Dec-08 20:21N 40°48' W 073°54'0 0.0
2016-Dec-08 18:30N 40°48' W 073°54'0 0.0
2016-Dec-08 17:33N 40°48' W 073°54'0 0.0
2016-Dec-08 16:31N 40°48' W 073°54'0 0.0
2016-Dec-08 15:32N 40°48' W 073°54'0 0.0
2016-Dec-08 14:33N 40°48' W 073°54'0 0.0
2016-Dec-08 13:32N 40°48' W 073°54'0 0.0
2016-Dec-08 12:30N 40°48' W 073°54'0 0.0
2016-Dec-08 11:33N 40°48' W 073°54'0 0.0
2016-Dec-08 09:27N 40°48' W 073°54'4 4.1
2016-Dec-08 08:33N 40°45' W 073°57'4 4.0
2016-Dec-08 07:33N 40°42' W 074°00'6 5.7
2016-Dec-08 06:33N 40°39' W 074°06'3 3.3
2016-Dec-08 05:33N 40°39' W 074°11'7 3.3
2016-Dec-08 03:26N 40°33' W 074°15'7 8.0
2016-Dec-08 02:33N 40°39' W 074°11'1 0.6
2016-Dec-08 01:33N 40°39' W 074°10'0 0.0
2016-Dec-08 00:33N 40°39' W 074°10'0 0.5
2016-Dec-07 23:33N 40°38' W 074°09'9 8.7
2016-Dec-07 22:33N 40°44' W 074°01'1010.1
2016-Dec-07 21:33N 40°54' W 073°55'2 0.7
2016-Dec-07 18:29N 40°56' W 073°54'9 9.1
2016-Dec-07 17:33N 40°48' W 073°59'9 9.0
2016-Dec-07 16:33N 40°40' W 074°04'7 7.3
2016-Dec-07 15:33N 40°36' W 074°12'0 0.1
2016-Dec-07 13:29N 40°36' W 074°12'7 7.3
2016-Dec-07 12:33N 40°39' W 074°04'3 3.5
2016-Dec-07 11:33N 40°38' W 074°09'1 0.9
2016-Dec-07 10:33N 40°39' W 074°10'6 2.8
2016-Dec-07 08:19N 40°33' W 074°14'5 6.0
2016-Dec-07 07:33N 40°38' W 074°12'6 6.3
2016-Dec-07 06:33N 40°39' W 074°04'4 3.9
2016-Dec-07 05:33N 40°38' W 074°09'0 0.4
2016-Dec-07 04:33N 40°38' W 074°10'0 0.0
2016-Dec-07 03:33N 40°38' W 074°10'0 0.0
2016-Dec-07 02:32N 40°38' W 074°10'0 0.0
2016-Dec-07 01:33N 40°38' W 074°10'0 0.0
2016-Dec-07 00:33N 40°38' W 074°10'0 0.0
2016-Dec-06 23:33N 40°38' W 074°10'0 0.0
2016-Dec-06 22:33N 40°38' W 074°10'4 4.4
2016-Dec-06 21:33N 40°40' W 074°04'2 1.5
2016-Dec-06 20:33N 40°39' W 074°06'0 0.2
2016-Dec-06 18:33N 40°39' W 074°06'0 0.0
2016-Dec-06 17:33N 40°39' W 074°06'0 0.0
2016-Dec-06 16:33N 40°39' W 074°06'0 0.0
2016-Dec-06 15:33N 40°39' W 074°06'1 1.0
2016-Dec-06 14:33N 40°39' W 074°07'5 0.5
2016-Dec-06 05:29N 40°36' W 074°12'3 3.1
2016-Dec-06 04:33N 40°39' W 074°10'0 0.0
2016-Dec-06 03:33N 40°39' W 074°10'0 0.0
2016-Dec-06 02:33N 40°39' W 074°10'0 0.0
2016-Dec-06 01:29N 40°39' W 074°10'0 0.0
2016-Dec-06 00:11N 40°39' W 074°10'0 0.0
2016-Dec-05 23:29N 40°39' W 074°10'0 0.0
2016-Dec-05 22:33N 40°39' W 074°10'0 0.0
2016-Dec-05 21:32N 40°39' W 074°10'0 0.0
2016-Dec-05 20:33N 40°39' W 074°10'0 0.0
2016-Dec-05 19:33N 40°39' W 074°10'0 0.0
2016-Dec-05 18:33N 40°39' W 074°10'0 0.0
2016-Dec-05 17:33N 40°39' W 074°10'0 0.0
2016-Dec-05 16:33N 40°39' W 074°10'0 0.0
2016-Dec-05 15:33N 40°39' W 074°10'0 0.0
2016-Dec-05 14:33N 40°39' W 074°10'0 0.0
2016-Dec-05 13:33N 40°39' W 074°10'0 0.0
2016-Dec-05 12:32N 40°39' W 074°10'3 2.9
2016-Dec-05 11:33N 40°39' W 074°06'0 0.0
2016-Dec-05 10:33N 40°39' W 074°06'3 2.9
2016-Dec-05 09:33N 40°39' W 074°10'0 0.0
2016-Dec-05 08:33N 40°39' W 074°10'0 0.0
2016-Dec-05 07:33N 40°39' W 074°10'0 0.0
2016-Dec-05 06:33N 40°39' W 074°10'0 0.0
2016-Dec-05 05:33N 40°39' W 074°10'0 0.0
2016-Dec-05 04:33N 40°39' W 074°10'0 0.0
2016-Dec-05 03:33N 40°39' W 074°10'0 0.0
2016-Dec-05 02:33N 40°39' W 074°10'0 0.0
2016-Dec-05 01:33N 40°39' W 074°10'0 0.0
2016-Dec-05 00:33N 40°39' W 074°10'0 0.0
2016-Dec-04 23:33N 40°39' W 074°10'0 0.0
2016-Dec-04 22:33N 40°39' W 074°10'0 0.0
2016-Dec-04 21:33N 40°39' W 074°10'0 0.5
2016-Dec-04 20:32N 40°39' W 074°10'6 4.7
2016-Dec-04 19:19N 40°33' W 074°13'6 7.5
2016-Dec-04 18:33N 40°39' W 074°10'0 0.0
2016-Dec-04 17:33N 40°39' W 074°10'0 0.0
2016-Dec-04 16:33N 40°39' W 074°10'2 2.5
2016-Dec-04 15:33N 40°39' W 074°07'2 2.5
2016-Dec-04 14:33N 40°39' W 074°10'0 0.0
2016-Dec-04 13:33N 40°38' W 074°10'0 0.0
2016-Dec-04 12:33N 40°38' W 074°10'0 0.0
2016-Dec-04 11:33N 40°38' W 074°10'0 0.0
2016-Dec-04 10:33N 40°38' W 074°10'4 4.1
2016-Dec-04 09:32N 40°35' W 074°13'3 3.0
2016-Dec-04 08:33N 40°33' W 074°15'1 0.9
2016-Dec-04 07:24N 40°33' W 074°14'2 0.9
2016-Dec-04 05:11N 40°35' W 074°13'2 0.7
2016-Dec-04 02:32N 40°33' W 074°14'6 6.1
2016-Dec-04 01:33N 40°39' W 074°10'0 0.0
2016-Dec-04 00:33N 40°39' W 074°10'0 0.1
2016-Dec-03 23:33N 40°38' W 074°10'0 0.0
2016-Dec-03 22:33N 40°38' W 074°10'0 0.0
2016-Dec-03 21:33N 40°38' W 074°10'3 2.6
2016-Dec-03 20:33N 40°39' W 074°07'3 2.7
2016-Dec-03 19:33N 40°37' W 074°03'0 0.2
2016-Dec-03 18:33N 40°37' W 074°03'0 0.3
2016-Dec-03 17:33N 40°37' W 074°03'2 1.8
2016-Dec-03 16:33N 40°39' W 074°04'1 1.3
2016-Dec-03 15:33N 40°40' W 074°03'9 8.6
2016-Dec-03 14:33N 40°48' W 073°59'8 8.0
2016-Dec-03 13:32N 40°56' W 073°54'0 0.4
2016-Dec-03 12:16N 40°56' W 073°55'0 0.0
2016-Dec-03 10:18N 40°56' W 073°55'0 0.0
2016-Dec-03 08:31N 40°56' W 073°55'0 0.0
2016-Dec-03 07:32N 40°56' W 073°55'0 0.1
2016-Dec-03 06:33N 40°56' W 073°55'1 0.7
2016-Dec-03 05:30N 40°55' W 073°55'9 9.8
2016-Dec-03 04:33N 40°47' W 073°60'9 9.1
2016-Dec-03 03:33N 40°39' W 074°06'2 1.9
2016-Dec-03 02:33N 40°38' W 074°04'1 1.2
2016-Dec-03 01:33N 40°39' W 074°04'0 0.0
2016-Dec-03 00:33N 40°39' W 074°04'9 9.1
2016-Dec-02 23:33N 40°48' W 073°59'7 6.6
2016-Dec-02 22:33N 40°54' W 073°56'2 2.2
2016-Dec-02 21:33N 40°56' W 073°55'0 0.0
2016-Dec-02 20:33N 40°56' W 073°55'0 0.0
2016-Dec-02 19:19N 40°56' W 073°55'0 0.0
2016-Dec-02 11:12N 40°56' W 073°55'0 0.0
2016-Dec-02 10:32N 40°56' W 073°55'0 0.0
2016-Dec-02 09:29N 40°56' W 073°55'0 0.0
2016-Dec-02 07:28N 40°56' W 073°55'0 0.1
2016-Dec-02 05:29N 40°56' W 073°55'0 0.0
2016-Dec-02 02:28N 40°56' W 073°55'0 0.0
2016-Dec-02 01:33N 40°56' W 073°55'0 0.2
2016-Dec-01 23:33N 40°56' W 073°54'0 0.0
2016-Dec-01 22:33N 40°56' W 073°54'1 1.1
2016-Dec-01 21:33N 40°55' W 073°55'6 5.9
2016-Dec-01 20:33N 40°49' W 073°58'6 6.0
2016-Dec-01 19:33N 40°44' W 074°01'7 7.3
2016-Dec-01 18:32N 40°39' W 074°08'1 1.3
2016-Dec-01 17:33N 40°39' W 074°10'0 0.0
2016-Dec-01 16:33N 40°39' W 074°10'0 0.0
2016-Dec-01 15:33N 40°39' W 074°10'0 0.0
2016-Dec-01 14:33N 40°39' W 074°10'0 0.0
2016-Dec-01 13:33N 40°39' W 074°10'7 7.2
2016-Dec-01 12:32N 40°32' W 074°15'4 3.7
2016-Dec-01 11:33N 40°35' W 074°12'4 3.7
2016-Dec-01 10:33N 40°39' W 074°10'0 0.0
2016-Dec-01 09:33N 40°39' W 074°10'0 0.0
2016-Dec-01 08:33N 40°39' W 074°10'0 0.0
2016-Dec-01 07:33N 40°39' W 074°10'0 0.0
2016-Dec-01 06:33N 40°39' W 074°10'0 0.0
2016-Dec-01 05:33N 40°39' W 074°10'0 0.0
2016-Dec-01 04:33N 40°39' W 074°10'0 0.0
2016-Dec-01 03:33N 40°39' W 074°10'0 0.0
2016-Dec-01 02:33N 40°39' W 074°10'0 0.0
2016-Dec-01 01:33N 40°39' W 074°10'4 4.2
2016-Dec-01 00:33N 40°39' W 074°04'4 3.9
2016-Nov-30 23:32N 40°38' W 074°10'0 0.3
2016-Nov-30 22:33N 40°38' W 074°10'0 0.0
2016-Nov-30 21:33N 40°38' W 074°10'0 0.2
2016-Nov-30 20:33N 40°38' W 074°10'3 3.1
2016-Nov-30 19:33N 40°39' W 074°06'3 3.1
2016-Nov-30 18:33N 40°41' W 074°02'9 9.1
2016-Nov-30 17:33N 40°48' W 073°55'  

Dump ship's entire track history